N6RF KMKC-KBBG
Flight info
| Callsign | N6RF |
|---|---|
| Flight time | 1h 25m |
| Altitude | 5000 |
| Route | ANX V159 SGF V71 SPOKE |
| Aircraft | C172/L-SFG/C |
Departure
| Time | 2026-04-18 17:20 |
|---|---|
| Airport | Charles B. Wheeler Downtown Airport (KMKC) |
Arrival
| Time | 2026-04-18 18:46 |
|---|---|
| Airport | Branson Airport (KBBG) |
| Time | Latitude | Longitude | Altitude | Speed | Heading |
|---|---|---|---|---|---|
| 2026-04-18 17:01 | 39.11783 | -94.59180 | 743 ft | 0 kts | 9° |
| 2026-04-18 17:07 | 39.11784 | -94.59180 | 743 ft | 0 kts | 355° |
| 2026-04-18 17:14 | 39.11791 | -94.59192 | 743 ft | 2 kts | 283° |
| 2026-04-18 17:14 | 39.11779 | -94.59219 | 743 ft | 4 kts | 234° |
| 2026-04-18 17:14 | 39.11755 | -94.59255 | 743 ft | 6 kts | 232° |
| 2026-04-18 17:15 | 39.11718 | -94.59300 | 743 ft | 8 kts | 230° |
| 2026-04-18 17:15 | 39.11667 | -94.59328 | 743 ft | 9 kts | 193° |
| 2026-04-18 17:15 | 39.11594 | -94.59345 | 744 ft | 11 kts | 190° |
| 2026-04-18 17:15 | 39.11522 | -94.59372 | 744 ft | 8 kts | 189° |
| 2026-04-18 17:16 | 39.11462 | -94.59409 | 744 ft | 9 kts | 250° |
| 2026-04-18 17:16 | 39.11462 | -94.59428 | 744 ft | 0 kts | 279° |
| 2026-04-18 17:18 | 39.11467 | -94.59461 | 744 ft | 7 kts | 283° |
| 2026-04-18 17:19 | 39.11488 | -94.59526 | 744 ft | 8 kts | 341° |
| 2026-04-18 17:19 | 39.11572 | -94.59510 | 744 ft | 26 kts | 10° |
| 2026-04-18 17:19 | 39.11916 | -94.59405 | 786 ft | 65 kts | 8° |
| 2026-04-18 17:19 | 39.12362 | -94.59211 | 998 ft | 67 kts | 9° |
| 2026-04-18 17:20 | 39.12784 | -94.58967 | 1198 ft | 72 kts | 17° |
| 2026-04-18 17:20 | 39.13217 | -94.58724 | 1451 ft | 66 kts | 8° |
| 2026-04-18 17:20 | 39.13634 | -94.58473 | 1664 ft | 71 kts | 22° |
| 2026-04-18 17:20 | 39.13895 | -94.57881 | 1888 ft | 83 kts | 66° |
| 2026-04-18 17:21 | 39.13841 | -94.57112 | 2091 ft | 90 kts | 90° |
| 2026-04-18 17:21 | 39.13707 | -94.56335 | 2292 ft | 89 kts | 86° |
| 2026-04-18 17:21 | 39.13589 | -94.55535 | 2510 ft | 88 kts | 87° |
| 2026-04-18 17:21 | 39.13451 | -94.54743 | 2655 ft | 95 kts | 91° |
| 2026-04-18 17:22 | 39.13301 | -94.53912 | 2873 ft | 93 kts | 91° |
| 2026-04-18 17:22 | 39.13154 | -94.53096 | 3058 ft | 95 kts | 90° |
| 2026-04-18 17:22 | 39.12998 | -94.52260 | 3234 ft | 96 kts | 90° |
| 2026-04-18 17:22 | 39.12845 | -94.51402 | 3361 ft | 100 kts | 90° |
| 2026-04-18 17:23 | 39.12721 | -94.50517 | 3507 ft | 100 kts | 83° |
| 2026-04-18 17:23 | 39.12647 | -94.49619 | 3662 ft | 101 kts | 82° |
| 2026-04-18 17:23 | 39.12575 | -94.48722 | 3829 ft | 101 kts | 81° |
| 2026-04-18 17:23 | 39.12502 | -94.47819 | 3985 ft | 101 kts | 81° |
| 2026-04-18 17:24 | 39.12428 | -94.46902 | 4111 ft | 105 kts | 82° |
| 2026-04-18 17:24 | 39.12351 | -94.45953 | 4250 ft | 106 kts | 83° |
| 2026-04-18 17:24 | 39.12268 | -94.44994 | 4388 ft | 108 kts | 82° |
| 2026-04-18 17:24 | 39.12188 | -94.44037 | 4525 ft | 108 kts | 82° |
| 2026-04-18 17:25 | 39.12107 | -94.43069 | 4658 ft | 109 kts | 82° |
| 2026-04-18 17:25 | 39.12024 | -94.42093 | 4798 ft | 109 kts | 82° |
| 2026-04-18 17:25 | 39.11943 | -94.41124 | 4926 ft | 110 kts | 82° |
| 2026-04-18 17:25 | 39.11860 | -94.40104 | 4969 ft | 117 kts | 83° |
| 2026-04-18 17:26 | 39.11769 | -94.39036 | 4973 ft | 123 kts | 84° |
| 2026-04-18 17:26 | 39.11673 | -94.37929 | 4972 ft | 127 kts | 85° |
| 2026-04-18 17:26 | 39.11572 | -94.36778 | 4972 ft | 129 kts | 85° |
| 2026-04-18 17:26 | 39.11473 | -94.35635 | 4972 ft | 130 kts | 85° |
| 2026-04-18 17:27 | 39.11373 | -94.34472 | 4970 ft | 131 kts | 85° |
| 2026-04-18 17:27 | 39.11273 | -94.33294 | 4968 ft | 131 kts | 85° |
| 2026-04-18 17:27 | 39.11075 | -94.30958 | 4967 ft | 131 kts | 85° |
| 2026-04-18 17:28 | 39.10977 | -94.29791 | 4967 ft | 131 kts | 86° |
| 2026-04-18 17:28 | 39.10878 | -94.28619 | 4966 ft | 131 kts | 86° |
| 2026-04-18 17:28 | 39.10778 | -94.27454 | 4969 ft | 131 kts | 86° |
| 2026-04-18 17:28 | 39.10679 | -94.26289 | 4962 ft | 131 kts | 86° |
| 2026-04-18 17:29 | 39.10581 | -94.25127 | 4962 ft | 131 kts | 86° |
| 2026-04-18 17:29 | 39.10482 | -94.23964 | 4963 ft | 131 kts | 86° |
| 2026-04-18 17:29 | 39.10380 | -94.22784 | 4963 ft | 131 kts | 86° |
| 2026-04-18 17:29 | 39.10281 | -94.21622 | 4960 ft | 131 kts | 85° |
| 2026-04-18 17:30 | 39.10181 | -94.20448 | 4960 ft | 131 kts | 86° |
| 2026-04-18 17:30 | 39.10081 | -94.19273 | 4958 ft | 131 kts | 85° |
| 2026-04-18 17:30 | 39.09981 | -94.18113 | 4956 ft | 131 kts | 85° |
| 2026-04-18 17:30 | 39.09882 | -94.16951 | 4956 ft | 131 kts | 86° |
| 2026-04-18 17:31 | 39.09781 | -94.15781 | 4956 ft | 131 kts | 86° |
| 2026-04-18 17:31 | 39.09681 | -94.14608 | 4953 ft | 131 kts | 85° |
| 2026-04-18 17:31 | 39.09497 | -94.13444 | 4951 ft | 138 kts | 110° |
| 2026-04-18 17:31 | 39.08819 | -94.12565 | 4954 ft | 143 kts | 153° |
| 2026-04-18 17:32 | 39.07901 | -94.12083 | 4954 ft | 142 kts | 164° |
| 2026-04-18 17:32 | 39.06956 | -94.11662 | 4955 ft | 142 kts | 164° |
| 2026-04-18 17:32 | 39.06025 | -94.11240 | 4954 ft | 142 kts | 163° |
| 2026-04-18 17:32 | 39.05087 | -94.10807 | 4953 ft | 142 kts | 163° |
| 2026-04-18 17:33 | 39.04154 | -94.10372 | 4955 ft | 142 kts | 163° |
| 2026-04-18 17:33 | 39.02299 | -94.09505 | 4952 ft | 140 kts | 163° |
| 2026-04-18 17:33 | 39.01377 | -94.09074 | 4954 ft | 141 kts | 163° |
| 2026-04-18 17:34 | 39.00464 | -94.08646 | 4955 ft | 141 kts | 163° |
| 2026-04-18 17:34 | 38.99535 | -94.08213 | 4955 ft | 141 kts | 163° |
| 2026-04-18 17:34 | 38.98610 | -94.07781 | 4955 ft | 141 kts | 163° |
| 2026-04-18 17:34 | 38.97681 | -94.07347 | 4960 ft | 140 kts | 163° |
| 2026-04-18 17:35 | 38.96767 | -94.06920 | 4964 ft | 140 kts | 163° |
| 2026-04-18 17:35 | 38.95846 | -94.06489 | 4966 ft | 140 kts | 163° |
| 2026-04-18 17:35 | 38.94924 | -94.06059 | 4971 ft | 140 kts | 163° |
| 2026-04-18 17:35 | 38.94009 | -94.05633 | 4973 ft | 140 kts | 163° |
| 2026-04-18 17:36 | 38.93087 | -94.05203 | 4974 ft | 140 kts | 162° |
| 2026-04-18 17:36 | 38.92163 | -94.04772 | 4974 ft | 140 kts | 162° |
| 2026-04-18 17:36 | 38.91250 | -94.04346 | 4975 ft | 140 kts | 162° |
| 2026-04-18 17:36 | 38.90327 | -94.03917 | 4973 ft | 140 kts | 162° |
| 2026-04-18 17:37 | 38.89404 | -94.03487 | 4970 ft | 140 kts | 162° |
| 2026-04-18 17:37 | 38.88520 | -94.03078 | 4968 ft | 139 kts | 163° |
| 2026-04-18 17:37 | 38.87619 | -94.02660 | 4969 ft | 138 kts | 163° |
| 2026-04-18 17:37 | 38.86689 | -94.02228 | 4970 ft | 138 kts | 163° |
| 2026-04-18 17:38 | 38.85784 | -94.01810 | 4971 ft | 138 kts | 163° |
| 2026-04-18 17:38 | 38.84879 | -94.01389 | 4971 ft | 139 kts | 162° |
| 2026-04-18 17:38 | 38.83960 | -94.00963 | 4972 ft | 139 kts | 162° |
| 2026-04-18 17:38 | 38.83041 | -94.00536 | 4972 ft | 139 kts | 162° |
| 2026-04-18 17:39 | 38.82135 | -94.00114 | 4973 ft | 139 kts | 162° |
| 2026-04-18 17:39 | 38.81226 | -93.99690 | 4973 ft | 139 kts | 162° |
| 2026-04-18 17:39 | 38.80312 | -93.99265 | 4973 ft | 139 kts | 163° |
| 2026-04-18 17:39 | 38.79397 | -93.98841 | 4973 ft | 139 kts | 162° |
| 2026-04-18 17:40 | 38.78476 | -93.98414 | 4971 ft | 139 kts | 162° |
| 2026-04-18 17:40 | 38.77562 | -93.97989 | 4970 ft | 138 kts | 163° |
| 2026-04-18 17:40 | 38.76959 | -93.97709 | 4970 ft | 138 kts | 163° |
| 2026-04-18 17:40 | 38.75744 | -93.97145 | 4972 ft | 138 kts | 162° |
| 2026-04-18 17:41 | 38.74828 | -93.96720 | 4974 ft | 139 kts | 162° |
| 2026-04-18 17:41 | 38.73919 | -93.96300 | 4973 ft | 139 kts | 162° |
| 2026-04-18 17:41 | 38.73006 | -93.95875 | 4973 ft | 139 kts | 162° |
| 2026-04-18 17:41 | 38.72090 | -93.95451 | 4971 ft | 139 kts | 162° |
| 2026-04-18 17:42 | 38.71178 | -93.95028 | 4972 ft | 139 kts | 162° |
| 2026-04-18 17:42 | 38.70268 | -93.94606 | 4973 ft | 139 kts | 162° |
| 2026-04-18 17:42 | 38.69353 | -93.94182 | 4971 ft | 139 kts | 162° |
| 2026-04-18 17:42 | 38.68435 | -93.93757 | 4966 ft | 139 kts | 162° |
| 2026-04-18 17:43 | 38.67515 | -93.93331 | 4965 ft | 139 kts | 162° |
| 2026-04-18 17:43 | 38.66605 | -93.92910 | 4966 ft | 138 kts | 162° |
| 2026-04-18 17:43 | 38.65700 | -93.92491 | 4966 ft | 138 kts | 162° |
| 2026-04-18 17:43 | 38.64783 | -93.92067 | 4964 ft | 139 kts | 162° |
| 2026-04-18 17:44 | 38.63870 | -93.91647 | 4961 ft | 139 kts | 161° |
| 2026-04-18 17:44 | 38.62962 | -93.91226 | 4959 ft | 139 kts | 162° |
| 2026-04-18 17:44 | 38.62047 | -93.90803 | 4955 ft | 140 kts | 162° |
| 2026-04-18 17:44 | 38.61129 | -93.90379 | 4954 ft | 140 kts | 162° |
| 2026-04-18 17:45 | 38.60218 | -93.89957 | 4953 ft | 139 kts | 161° |
| 2026-04-18 17:45 | 38.59293 | -93.89530 | 4952 ft | 139 kts | 161° |
| 2026-04-18 17:45 | 38.58383 | -93.89111 | 4952 ft | 139 kts | 161° |
| 2026-04-18 17:45 | 38.57468 | -93.88688 | 4953 ft | 138 kts | 161° |
| 2026-04-18 17:46 | 38.56566 | -93.88271 | 4952 ft | 138 kts | 162° |
| 2026-04-18 17:46 | 38.55657 | -93.87851 | 4952 ft | 139 kts | 161° |
| 2026-04-18 17:46 | 38.54740 | -93.87427 | 4952 ft | 139 kts | 162° |
| 2026-04-18 17:46 | 38.53830 | -93.87008 | 4950 ft | 139 kts | 162° |
| 2026-04-18 17:47 | 38.52913 | -93.86586 | 4948 ft | 139 kts | 162° |
| 2026-04-18 17:47 | 38.51994 | -93.86163 | 4948 ft | 139 kts | 161° |
| 2026-04-18 17:47 | 38.51080 | -93.85741 | 4950 ft | 139 kts | 161° |
| 2026-04-18 17:47 | 38.50172 | -93.85323 | 4951 ft | 139 kts | 161° |
| 2026-04-18 17:48 | 38.49244 | -93.84897 | 4951 ft | 139 kts | 161° |
| 2026-04-18 17:48 | 38.48333 | -93.84476 | 4950 ft | 139 kts | 162° |
| 2026-04-18 17:48 | 38.47410 | -93.84051 | 4950 ft | 139 kts | 161° |
| 2026-04-18 17:48 | 38.46506 | -93.83635 | 4951 ft | 139 kts | 162° |
| 2026-04-18 17:49 | 38.45596 | -93.83218 | 4951 ft | 139 kts | 161° |
| 2026-04-18 17:49 | 38.44675 | -93.82794 | 4952 ft | 139 kts | 162° |
| 2026-04-18 17:49 | 38.43770 | -93.82378 | 4953 ft | 139 kts | 161° |
| 2026-04-18 17:49 | 38.42863 | -93.81960 | 4953 ft | 139 kts | 161° |
| 2026-04-18 17:50 | 38.41950 | -93.81541 | 4955 ft | 139 kts | 161° |
| 2026-04-18 17:50 | 38.41044 | -93.81125 | 4956 ft | 139 kts | 161° |
| 2026-04-18 17:50 | 38.40127 | -93.80704 | 4958 ft | 139 kts | 161° |
| 2026-04-18 17:50 | 38.39221 | -93.80288 | 4960 ft | 139 kts | 161° |
| 2026-04-18 17:51 | 38.38302 | -93.79865 | 4959 ft | 139 kts | 161° |
| 2026-04-18 17:51 | 38.37387 | -93.79446 | 4958 ft | 139 kts | 161° |
| 2026-04-18 17:51 | 38.36478 | -93.79029 | 4959 ft | 139 kts | 161° |
| 2026-04-18 17:51 | 38.35553 | -93.78605 | 4959 ft | 139 kts | 160° |
| 2026-04-18 17:52 | 38.34644 | -93.78188 | 4960 ft | 139 kts | 160° |
| 2026-04-18 17:52 | 38.33737 | -93.77773 | 4960 ft | 139 kts | 160° |
| 2026-04-18 17:52 | 38.32814 | -93.77349 | 4962 ft | 139 kts | 160° |
| 2026-04-18 17:52 | 38.31895 | -93.76928 | 4962 ft | 139 kts | 161° |
| 2026-04-18 17:53 | 38.30986 | -93.76512 | 4965 ft | 139 kts | 161° |
| 2026-04-18 17:53 | 38.30061 | -93.76087 | 4967 ft | 139 kts | 161° |
| 2026-04-18 17:53 | 38.29155 | -93.75673 | 4967 ft | 139 kts | 161° |
| 2026-04-18 17:53 | 38.28236 | -93.75251 | 4969 ft | 139 kts | 161° |
| 2026-04-18 17:54 | 38.27325 | -93.74836 | 4968 ft | 139 kts | 161° |
| 2026-04-18 17:54 | 38.26404 | -93.74414 | 4969 ft | 139 kts | 161° |
| 2026-04-18 17:54 | 38.25492 | -93.73998 | 4968 ft | 140 kts | 161° |
| 2026-04-18 17:54 | 38.24576 | -93.73579 | 4967 ft | 140 kts | 161° |
| 2026-04-18 17:55 | 38.23661 | -93.73163 | 4964 ft | 140 kts | 160° |
| 2026-04-18 17:55 | 38.22730 | -93.72737 | 4964 ft | 140 kts | 160° |
| 2026-04-18 17:55 | 38.21809 | -93.72316 | 4962 ft | 140 kts | 161° |
| 2026-04-18 17:55 | 38.20900 | -93.71900 | 4963 ft | 140 kts | 160° |
| 2026-04-18 17:56 | 38.19982 | -93.71481 | 4964 ft | 139 kts | 160° |
| 2026-04-18 17:56 | 38.19060 | -93.71060 | 4969 ft | 139 kts | 160° |
| 2026-04-18 17:56 | 38.17227 | -93.70225 | 4965 ft | 139 kts | 160° |
| 2026-04-18 17:57 | 38.16324 | -93.69813 | 4963 ft | 139 kts | 160° |
| 2026-04-18 17:57 | 38.14489 | -93.68977 | 4963 ft | 140 kts | 160° |
| 2026-04-18 17:58 | 38.12650 | -93.68138 | 4968 ft | 139 kts | 160° |
| 2026-04-18 17:58 | 38.10817 | -93.67303 | 4988 ft | 139 kts | 160° |
| 2026-04-18 17:59 | 38.08973 | -93.66465 | 4988 ft | 140 kts | 160° |
| 2026-04-18 17:59 | 38.08054 | -93.66045 | 4986 ft | 140 kts | 160° |
| 2026-04-18 17:59 | 38.06227 | -93.65217 | 4989 ft | 139 kts | 161° |
| 2026-04-18 18:00 | 38.05304 | -93.64796 | 4990 ft | 140 kts | 161° |
| 2026-04-18 18:00 | 38.03469 | -93.63963 | 4989 ft | 140 kts | 160° |
| 2026-04-18 18:01 | 38.01616 | -93.63123 | 4985 ft | 141 kts | 160° |
| 2026-04-18 18:01 | 37.99766 | -93.62283 | 4981 ft | 141 kts | 160° |
| 2026-04-18 18:02 | 37.97904 | -93.61438 | 4980 ft | 141 kts | 160° |
| 2026-04-18 18:02 | 37.96069 | -93.60606 | 4986 ft | 139 kts | 160° |
| 2026-04-18 18:02 | 37.95155 | -93.60191 | 4990 ft | 139 kts | 160° |
| 2026-04-18 18:03 | 37.93321 | -93.59360 | 4991 ft | 140 kts | 160° |
| 2026-04-18 18:03 | 37.92402 | -93.58946 | 4990 ft | 140 kts | 161° |
| 2026-04-18 18:04 | 37.90555 | -93.58110 | 4988 ft | 139 kts | 160° |
| 2026-04-18 18:04 | 37.89634 | -93.57694 | 4984 ft | 139 kts | 160° |
| 2026-04-18 18:04 | 37.87815 | -93.56871 | 4982 ft | 138 kts | 160° |
| 2026-04-18 18:05 | 37.86167 | -93.56126 | 4981 ft | 137 kts | 161° |
| 2026-04-18 18:05 | 37.85267 | -93.55719 | 4982 ft | 137 kts | 160° |
| 2026-04-18 18:05 | 37.84404 | -93.55329 | 4982 ft | 137 kts | 160° |
| 2026-04-18 18:06 | 37.82608 | -93.54519 | 4981 ft | 137 kts | 160° |
| 2026-04-18 18:06 | 37.81708 | -93.54113 | 4981 ft | 137 kts | 160° |
| 2026-04-18 18:06 | 37.80790 | -93.53699 | 4977 ft | 137 kts | 160° |
| 2026-04-18 18:07 | 37.79884 | -93.53289 | 4974 ft | 138 kts | 160° |
| 2026-04-18 18:07 | 37.78975 | -93.52879 | 4969 ft | 138 kts | 160° |
| 2026-04-18 18:07 | 37.77145 | -93.52055 | 4964 ft | 139 kts | 159° |
| 2026-04-18 18:08 | 37.76227 | -93.51640 | 4961 ft | 139 kts | 160° |
| 2026-04-18 18:08 | 37.75318 | -93.51231 | 4963 ft | 138 kts | 160° |
| 2026-04-18 18:08 | 37.74415 | -93.50822 | 4964 ft | 139 kts | 160° |
| 2026-04-18 18:08 | 37.73494 | -93.50407 | 4964 ft | 139 kts | 160° |
| 2026-04-18 18:09 | 37.72578 | -93.49995 | 4963 ft | 139 kts | 160° |
| 2026-04-18 18:09 | 37.71672 | -93.49587 | 4962 ft | 139 kts | 160° |
| 2026-04-18 18:09 | 37.70752 | -93.49173 | 4961 ft | 139 kts | 159° |
| 2026-04-18 18:09 | 37.69830 | -93.48758 | 4958 ft | 139 kts | 160° |
| 2026-04-18 18:10 | 37.68916 | -93.48348 | 4957 ft | 139 kts | 160° |
| 2026-04-18 18:10 | 37.68006 | -93.47938 | 4957 ft | 139 kts | 160° |
| 2026-04-18 18:10 | 37.67092 | -93.47527 | 4958 ft | 139 kts | 159° |
| 2026-04-18 18:10 | 37.66175 | -93.47114 | 4958 ft | 139 kts | 159° |
| 2026-04-18 18:11 | 37.65262 | -93.46703 | 4959 ft | 138 kts | 159° |
| 2026-04-18 18:11 | 37.64346 | -93.46292 | 4959 ft | 139 kts | 159° |
| 2026-04-18 18:11 | 37.63429 | -93.45879 | 4960 ft | 139 kts | 160° |
| 2026-04-18 18:11 | 37.62524 | -93.45473 | 4958 ft | 139 kts | 160° |
| 2026-04-18 18:12 | 37.61609 | -93.45061 | 4957 ft | 139 kts | 160° |
| 2026-04-18 18:12 | 37.60693 | -93.44650 | 4957 ft | 139 kts | 160° |
| 2026-04-18 18:12 | 37.59775 | -93.44241 | 4958 ft | 139 kts | 160° |
| 2026-04-18 18:12 | 37.58859 | -93.43829 | 4961 ft | 138 kts | 160° |
| 2026-04-18 18:13 | 37.57943 | -93.43419 | 4961 ft | 139 kts | 160° |
| 2026-04-18 18:13 | 37.57032 | -93.43009 | 4958 ft | 139 kts | 160° |
| 2026-04-18 18:13 | 37.56115 | -93.42599 | 4958 ft | 139 kts | 160° |
| 2026-04-18 18:13 | 37.55204 | -93.42191 | 4960 ft | 139 kts | 160° |
| 2026-04-18 18:14 | 37.54283 | -93.41779 | 4960 ft | 139 kts | 160° |
| 2026-04-18 18:14 | 37.53371 | -93.41370 | 4961 ft | 139 kts | 160° |
| 2026-04-18 18:14 | 37.52454 | -93.40961 | 4961 ft | 139 kts | 160° |
| 2026-04-18 18:14 | 37.51536 | -93.40550 | 4962 ft | 139 kts | 159° |
| 2026-04-18 18:15 | 37.50614 | -93.40138 | 4963 ft | 139 kts | 159° |
| 2026-04-18 18:15 | 37.49697 | -93.39727 | 4965 ft | 139 kts | 160° |
| 2026-04-18 18:15 | 37.48789 | -93.39320 | 4964 ft | 138 kts | 160° |
| 2026-04-18 18:15 | 37.47870 | -93.38908 | 4964 ft | 139 kts | 160° |
| 2026-04-18 18:16 | 37.46954 | -93.38499 | 4966 ft | 139 kts | 160° |
| 2026-04-18 18:16 | 37.46035 | -93.38089 | 4969 ft | 139 kts | 160° |
| 2026-04-18 18:16 | 37.45116 | -93.37679 | 4969 ft | 140 kts | 160° |
| 2026-04-18 18:16 | 37.44189 | -93.37264 | 4968 ft | 140 kts | 160° |
| 2026-04-18 18:17 | 37.43272 | -93.36855 | 4969 ft | 139 kts | 160° |
| 2026-04-18 18:17 | 37.42358 | -93.36448 | 4968 ft | 139 kts | 160° |
| 2026-04-18 18:17 | 37.41438 | -93.36036 | 4974 ft | 139 kts | 160° |
| 2026-04-18 18:17 | 37.40522 | -93.35628 | 4974 ft | 139 kts | 160° |
| 2026-04-18 18:18 | 37.39599 | -93.35216 | 4974 ft | 139 kts | 159° |
| 2026-04-18 18:18 | 37.38681 | -93.34808 | 4973 ft | 139 kts | 160° |
| 2026-04-18 18:18 | 37.37801 | -93.34415 | 4972 ft | 138 kts | 160° |
| 2026-04-18 18:18 | 37.36875 | -93.34004 | 4903 ft | 134 kts | 161° |
| 2026-04-18 18:19 | 37.35960 | -93.33602 | 4660 ft | 137 kts | 161° |
| 2026-04-18 18:19 | 37.35017 | -93.33371 | 4455 ft | 137 kts | 176° |
| 2026-04-18 18:19 | 37.34067 | -93.33252 | 4260 ft | 138 kts | 178° |
| 2026-04-18 18:19 | 37.33113 | -93.33142 | 4072 ft | 136 kts | 178° |
| 2026-04-18 18:20 | 37.32152 | -93.33034 | 3872 ft | 137 kts | 178° |
| 2026-04-18 18:20 | 37.31215 | -93.32926 | 3699 ft | 135 kts | 177° |
| 2026-04-18 18:20 | 37.30263 | -93.32816 | 3487 ft | 136 kts | 176° |
| 2026-04-18 18:20 | 37.29314 | -93.32707 | 3266 ft | 138 kts | 176° |
| 2026-04-18 18:21 | 37.28368 | -93.32594 | 3095 ft | 135 kts | 176° |
| 2026-04-18 18:21 | 37.27446 | -93.32486 | 2986 ft | 130 kts | 176° |
| 2026-04-18 18:21 | 37.26545 | -93.32375 | 2978 ft | 130 kts | 176° |
| 2026-04-18 18:21 | 37.25630 | -93.32263 | 2972 ft | 130 kts | 176° |
| 2026-04-18 18:22 | 37.24727 | -93.32153 | 2975 ft | 130 kts | 176° |
| 2026-04-18 18:22 | 37.23811 | -93.32041 | 2976 ft | 131 kts | 177° |
| 2026-04-18 18:22 | 37.22904 | -93.31934 | 2977 ft | 131 kts | 176° |
| 2026-04-18 18:22 | 37.21997 | -93.31828 | 2978 ft | 131 kts | 176° |
| 2026-04-18 18:23 | 37.21074 | -93.31718 | 2973 ft | 132 kts | 175° |
| 2026-04-18 18:23 | 37.20171 | -93.31612 | 2968 ft | 131 kts | 176° |
| 2026-04-18 18:23 | 37.19255 | -93.31504 | 2971 ft | 132 kts | 176° |
| 2026-04-18 18:23 | 37.18335 | -93.31396 | 2973 ft | 131 kts | 175° |
| 2026-04-18 18:24 | 37.17429 | -93.31291 | 2979 ft | 131 kts | 175° |
| 2026-04-18 18:24 | 37.16516 | -93.31182 | 2968 ft | 131 kts | 176° |
| 2026-04-18 18:24 | 37.15610 | -93.31076 | 2972 ft | 131 kts | 175° |
| 2026-04-18 18:24 | 37.14698 | -93.30969 | 2971 ft | 131 kts | 176° |
| 2026-04-18 18:25 | 37.13791 | -93.30863 | 2969 ft | 131 kts | 175° |
| 2026-04-18 18:25 | 37.12872 | -93.30756 | 2963 ft | 131 kts | 175° |
| 2026-04-18 18:25 | 37.11954 | -93.30645 | 2965 ft | 131 kts | 176° |
| 2026-04-18 18:25 | 37.11045 | -93.30538 | 2972 ft | 131 kts | 176° |
| 2026-04-18 18:26 | 37.10133 | -93.30433 | 2968 ft | 131 kts | 176° |
| 2026-04-18 18:26 | 37.09222 | -93.30326 | 2963 ft | 131 kts | 177° |
| 2026-04-18 18:26 | 37.08303 | -93.30219 | 2972 ft | 132 kts | 176° |
| 2026-04-18 18:26 | 37.07391 | -93.30112 | 2969 ft | 131 kts | 176° |
| 2026-04-18 18:27 | 37.06479 | -93.30005 | 2966 ft | 132 kts | 176° |
| 2026-04-18 18:27 | 37.05560 | -93.29898 | 2968 ft | 132 kts | 175° |
| 2026-04-18 18:27 | 37.04644 | -93.29791 | 2969 ft | 132 kts | 175° |
| 2026-04-18 18:27 | 37.03719 | -93.29682 | 2965 ft | 132 kts | 175° |
| 2026-04-18 18:28 | 37.02802 | -93.29576 | 2959 ft | 132 kts | 175° |
| 2026-04-18 18:28 | 37.01878 | -93.29466 | 2964 ft | 132 kts | 175° |
| 2026-04-18 18:28 | 37.00967 | -93.29357 | 2954 ft | 132 kts | 175° |
| 2026-04-18 18:28 | 37.00039 | -93.29247 | 2943 ft | 132 kts | 175° |
| 2026-04-18 18:29 | 36.99118 | -93.29135 | 2950 ft | 132 kts | 176° |
| 2026-04-18 18:29 | 36.98200 | -93.29026 | 2951 ft | 133 kts | 175° |
| 2026-04-18 18:29 | 36.97274 | -93.28920 | 2950 ft | 133 kts | 175° |
| 2026-04-18 18:29 | 36.96340 | -93.28809 | 2955 ft | 134 kts | 175° |
| 2026-04-18 18:30 | 36.95408 | -93.28700 | 2950 ft | 133 kts | 175° |
| 2026-04-18 18:30 | 36.94489 | -93.28593 | 2946 ft | 132 kts | 175° |
| 2026-04-18 18:30 | 36.93566 | -93.28484 | 2950 ft | 132 kts | 175° |
| 2026-04-18 18:30 | 36.92639 | -93.28376 | 2941 ft | 132 kts | 175° |
| 2026-04-18 18:31 | 36.91731 | -93.28279 | 2941 ft | 131 kts | 183° |
| 2026-04-18 18:31 | 36.90830 | -93.28428 | 2943 ft | 130 kts | 177° |
| 2026-04-18 18:31 | 36.89946 | -93.28237 | 2949 ft | 130 kts | 169° |
| 2026-04-18 18:31 | 36.89036 | -93.28043 | 2925 ft | 131 kts | 172° |
| 2026-04-18 18:32 | 36.88157 | -93.27895 | 2901 ft | 129 kts | 173° |
| 2026-04-18 18:32 | 36.87261 | -93.27769 | 2878 ft | 131 kts | 173° |
| 2026-04-18 18:32 | 36.86381 | -93.27656 | 2859 ft | 129 kts | 174° |
| 2026-04-18 18:32 | 36.85486 | -93.27546 | 2825 ft | 130 kts | 175° |
| 2026-04-18 18:33 | 36.84594 | -93.27443 | 2771 ft | 125 kts | 176° |
| 2026-04-18 18:33 | 36.83731 | -93.27343 | 2627 ft | 126 kts | 175° |
| 2026-04-18 18:33 | 36.82848 | -93.27238 | 2485 ft | 124 kts | 176° |
| 2026-04-18 18:33 | 36.82007 | -93.27142 | 2449 ft | 121 kts | 176° |
| 2026-04-18 18:34 | 36.81155 | -93.27042 | 2451 ft | 124 kts | 176° |
| 2026-04-18 18:34 | 36.80290 | -93.26939 | 2453 ft | 125 kts | 176° |
| 2026-04-18 18:34 | 36.79412 | -93.26833 | 2461 ft | 126 kts | 176° |
| 2026-04-18 18:34 | 36.78538 | -93.26736 | 2442 ft | 126 kts | 175° |
| 2026-04-18 18:35 | 36.77681 | -93.26557 | 2477 ft | 125 kts | 169° |
| 2026-04-18 18:35 | 36.76814 | -93.26339 | 2468 ft | 126 kts | 168° |
| 2026-04-18 18:35 | 36.75952 | -93.26113 | 2475 ft | 126 kts | 167° |
| 2026-04-18 18:35 | 36.75076 | -93.25882 | 2464 ft | 126 kts | 168° |
| 2026-04-18 18:36 | 36.74215 | -93.25652 | 2456 ft | 127 kts | 168° |
| 2026-04-18 18:36 | 36.73354 | -93.25426 | 2469 ft | 126 kts | 168° |
| 2026-04-18 18:36 | 36.72487 | -93.25194 | 2479 ft | 126 kts | 167° |
| 2026-04-18 18:36 | 36.71616 | -93.24961 | 2456 ft | 128 kts | 167° |
| 2026-04-18 18:37 | 36.70746 | -93.24729 | 2468 ft | 127 kts | 167° |
| 2026-04-18 18:37 | 36.69880 | -93.24497 | 2470 ft | 127 kts | 167° |
| 2026-04-18 18:37 | 36.69014 | -93.24267 | 2467 ft | 127 kts | 167° |
| 2026-04-18 18:37 | 36.68140 | -93.24035 | 2451 ft | 127 kts | 166° |
| 2026-04-18 18:38 | 36.67280 | -93.23804 | 2466 ft | 125 kts | 168° |
| 2026-04-18 18:38 | 36.66412 | -93.23575 | 2468 ft | 126 kts | 168° |
| 2026-04-18 18:38 | 36.65555 | -93.23347 | 2453 ft | 126 kts | 168° |
| 2026-04-18 18:38 | 36.64699 | -93.23119 | 2456 ft | 125 kts | 167° |
| 2026-04-18 18:39 | 36.63835 | -93.22887 | 2458 ft | 126 kts | 168° |
| 2026-04-18 18:39 | 36.62977 | -93.22659 | 2462 ft | 125 kts | 167° |
| 2026-04-18 18:39 | 36.62111 | -93.22430 | 2465 ft | 126 kts | 168° |
| 2026-04-18 18:39 | 36.61260 | -93.22202 | 2464 ft | 125 kts | 168° |
| 2026-04-18 18:40 | 36.60397 | -93.21974 | 2463 ft | 126 kts | 167° |
| 2026-04-18 18:40 | 36.59538 | -93.21751 | 2465 ft | 126 kts | 167° |
| 2026-04-18 18:40 | 36.58665 | -93.21530 | 2454 ft | 127 kts | 168° |
| 2026-04-18 18:40 | 36.57796 | -93.21275 | 2454 ft | 127 kts | 163° |
| 2026-04-18 18:41 | 36.56945 | -93.20995 | 2465 ft | 127 kts | 163° |
| 2026-04-18 18:41 | 36.56139 | -93.20561 | 2472 ft | 126 kts | 144° |
| 2026-04-18 18:41 | 36.55398 | -93.19949 | 2451 ft | 125 kts | 142° |
| 2026-04-18 18:41 | 36.54695 | -93.19342 | 2450 ft | 122 kts | 141° |
| 2026-04-18 18:42 | 36.53988 | -93.18733 | 2338 ft | 127 kts | 142° |
| 2026-04-18 18:42 | 36.53276 | -93.18108 | 2289 ft | 123 kts | 140° |
| 2026-04-18 18:42 | 36.52580 | -93.17493 | 2263 ft | 121 kts | 141° |
| 2026-04-18 18:42 | 36.51907 | -93.16901 | 2259 ft | 111 kts | 142° |
| 2026-04-18 18:43 | 36.50690 | -93.15850 | 2261 ft | 103 kts | 142° |
| 2026-04-18 18:43 | 36.50081 | -93.15381 | 2267 ft | 103 kts | 155° |
| 2026-04-18 18:43 | 36.49387 | -93.15359 | 2253 ft | 97 kts | 202° |
| 2026-04-18 18:44 | 36.48845 | -93.15799 | 2274 ft | 87 kts | 236° |
| 2026-04-18 18:44 | 36.48754 | -93.16305 | 2260 ft | 55 kts | 320° |
| 2026-04-18 18:44 | 36.49082 | -93.16554 | 2256 ft | 54 kts | 336° |
| 2026-04-18 18:44 | 36.49433 | -93.16794 | 2189 ft | 57 kts | 334° |
| 2026-04-18 18:45 | 36.49760 | -93.17076 | 2108 ft | 58 kts | 329° |
| 2026-04-18 18:45 | 36.50084 | -93.17396 | 2019 ft | 57 kts | 333° |
| 2026-04-18 18:45 | 36.50420 | -93.17616 | 1929 ft | 54 kts | 332° |
| 2026-04-18 18:45 | 36.50710 | -93.17888 | 1819 ft | 53 kts | 325° |
| 2026-04-18 18:46 | 36.51013 | -93.18146 | 1728 ft | 49 kts | 328° |
| 2026-04-18 18:46 | 36.51289 | -93.18400 | 1636 ft | 50 kts | 324° |
| 2026-04-18 18:46 | 36.51575 | -93.18651 | 1575 ft | 48 kts | 330° |
| 2026-04-18 18:46 | 36.51860 | -93.18896 | 1503 ft | 49 kts | 326° |
| 2026-04-18 18:47 | 36.52160 | -93.19154 | 1427 ft | 54 kts | 326° |
| 2026-04-18 18:47 | 36.52471 | -93.19420 | 1347 ft | 52 kts | 329° |
| 2026-04-18 18:47 | 36.52725 | -93.19634 | 1306 ft | 33 kts | 329° |
| 2026-04-18 18:47 | 36.52877 | -93.19765 | 1306 ft | 21 kts | 322° |
| 2026-04-18 18:48 | 36.52983 | -93.19860 | 1306 ft | 17 kts | 328° |
| 2026-04-18 18:48 | 36.53074 | -93.19939 | 1306 ft | 14 kts | 322° |
| 2026-04-18 18:48 | 36.53154 | -93.20008 | 1306 ft | 13 kts | 326° |
| 2026-04-18 18:48 | 36.53217 | -93.20064 | 1306 ft | 8 kts | 324° |
| 2026-04-18 18:49 | 36.53263 | -93.20104 | 1306 ft | 7 kts | 326° |
| 2026-04-18 18:49 | 36.53306 | -93.20139 | 1306 ft | 7 kts | 325° |
| 2026-04-18 18:49 | 36.53348 | -93.20174 | 1306 ft | 6 kts | 327° |
| 2026-04-18 18:49 | 36.53386 | -93.20208 | 1306 ft | 6 kts | 323° |
| 2026-04-18 18:50 | 36.53422 | -93.20243 | 1306 ft | 7 kts | 325° |
| 2026-04-18 18:50 | 36.53474 | -93.20287 | 1306 ft | 10 kts | 325° |
| 2026-04-18 18:50 | 36.53537 | -93.20333 | 1306 ft | 11 kts | 350° |
| 2026-04-18 18:50 | 36.53600 | -93.20274 | 1306 ft | 12 kts | 54° |
| 2026-04-18 18:51 | 36.53651 | -93.20186 | 1306 ft | 12 kts | 53° |
| 2026-04-18 18:51 | 36.53699 | -93.20102 | 1306 ft | 7 kts | 44° |
| 2026-04-18 18:51 | 36.53722 | -93.20069 | 1306 ft | 4 kts | 51° |
| 2026-04-18 18:51 | 36.53729 | -93.20014 | 1306 ft | 10 kts | 98° |
| 2026-04-18 18:52 | 36.53664 | -93.19960 | 1306 ft | 13 kts | 158° |
| 2026-04-18 18:52 | 36.53594 | -93.19926 | 1306 ft | 5 kts | 159° |
| 2026-04-18 18:52 | 36.53572 | -93.19865 | 1306 ft | 9 kts | 92° |
| 2026-04-18 18:52 | 36.53607 | -93.19817 | 1306 ft | 8 kts | 92° |
| 2026-04-18 18:53 | 36.53580 | -93.19778 | 1306 ft | 5 kts | 132° |
| 2026-04-18 18:53 | 36.53575 | -93.19771 | 1306 ft | 0 kts | 128° |